« 定点 富山空港 2017/11/10 fri | トップページ | 芝山2 成田国際空港 2017/10/26 thu »

2017/11/11

芝山1 成田国際空港 2017/10/26 thu

ようやく時間が落ち着いたので、少し撮り溜めた画像を・・ 

デルタのジャンボの終焉が近づいて、時間がある時にスポッティングに出かけていました。冬が近づき、連日北風が卓越して、ひこうきの丘での撮影となりました。

RJAA 260400Z 04009KT 9999 FEW030 19/08 Q1020 NOSIG RMK 1CU030 A3014

20171026_rjaa_100x9vswh

SIA11 KLAX-RJAA 9V-SWH B777-312ER

20171026_rjaa_101n407kz

GIT2103 KLAX-RJAA N407KZ B747-4KZFSCD

20171026_rjaa_102b1911

CXA815 ZSAM-RJAA B-1911 B737-85C

20171026_rjaa_103ja20jj

JJP113 RJAA-RJCC JA20JJ A321-232

20171026_rjaa_104b18210

CAL100 RCTP-RJAA B-18210 B747-409

この日は、視程がよいので34R着陸機もできるだけ撮影

20171026_rjaa_105n76021

UA79 KEWR-RJAA N76021 B777-224ER

20171026_rjaa_106ja8286

ANA8442 RCTP-RJAA JA8286 B767-381ERBCF

20171026_rjaa_107ja10jj

JJP413 RJAA-RJOT JA10JJ A321-232

20171026_rjaa_108eidbk

AZA785 RJAA-LIRF EI-DBK B777-243ER

20171026_rjaa_109ja93cp

JA93CP BK-117C-2 千葉県警察

20171026_rjaa_110ja06va

VNL103 RJAA-RCTP JA06VA A320-214

RJAA 260430Z 02009KT 9999 FEW030 18/07 Q1020 NOSIG RMK 1CU030 A3014

20171026_rjaa_111ja05kz

NCA110 RJAA-KLAX JA05KZ B747-4KZFSCD

20171026_rjaa_112n173dz

DAL166 WSSS-RJAA N173DZ B767-332ER

20171026_rjaa_113ja603a

ANA8514 VHHH-RJAA JA603A B767-381ERBCF

20171026_rjaa_114ja620a

ANA954 ZHHH-RJAA JA620A B767-381ER

20171026_rjaa_115n688cp

N688CP RKSS-RJAA F2TH

20171026_rjaa_116b5632

CXA809 ZSFZ-RJAA B-5632 B737-85C

20171026_rjaa_117ja05kz

ようやく離陸

20171026_rjaa_118ja05kz

NCA110 RJAA-KLAX JA05KZ B747-4KZFSCD

20171026_rjaa_119ja21jj

JJP613 RJAA-RJFT JA21JJ A320-232

20171026_rjaa_120ja602f

JA602F 北地区へドナドナ

20171026_rjaa_121b6541

CCA929 ZSPD-RJAA B-6541 A330-243

20171026_rjaa_122ja734a

ANA802 WSSS-RJAA JA734A B777-381ER

20171026_rjaa_123n78001

UAL7 KIAH-RJAA N78001 B777-224ER

20171026_rjaa_124ja620j

JAL812 RCKH-RJAA JA620J B767-346ER

20171026_rjaa_125b2288

CSN628 RJAA-ZYTX B-2288 A321-231

20171026_rjaa_126n331up

UPS108 RJAA-ZSPD N331UP B767-34AFER

20171026_rjaa_127n666us

やってきました

20171026_rjaa_128n666us

20171026_rjaa_129n666us

DAL275 KDTW-RJAA N666US B747-451

20171026_rjaa_130b6890

CSE776 RJAA-ZSNJ B-6890 A320-214

20171026_rjaa_131ja619a

ANA8501 RJAA-ZYTL JA8358 B767-381ERBCF

20171026_rjaa_132ja619a

ANA922 ZSPD-RJAA JA619A B767-381ER

RJAA 260400Z 04009KT 9999 FEW030 19/08 Q1020 NOSIG RMK 1CU030 A3014

20171026_rjaa_133n1611b

DAL296 ZSPD-RJAA N1611B B767-332ER

20171026_rjaa_134ja13jj

JJP304 ROAH-RJAA JA13JJ A320-232

20171026_rjaa_135blee

HKE844 VHHH-RJAA B-LEE A321-231

20171026_rjaa_136b5681

CCA952 RJAA-ZYTL B-5681 B737-89L

20171026_rjaa_137bhnh

CPA504 VHHH-RJAA B-HNH B777-367

20171026_rjaa_138ja626a

JAL802 RCTP-RJAA JA831J B787-8

20171026_rjaa_139ja626a

ANA934 ZGGG-RJAA JA626A B767-381ER

その2へつづく

|

« 定点 富山空港 2017/11/10 fri | トップページ | 芝山2 成田国際空港 2017/10/26 thu »

成田国際空港」カテゴリの記事

コメント

コメントを書く



(ウェブ上には掲載しません)


コメントは記事投稿者が公開するまで表示されません。



トラックバック


この記事へのトラックバック一覧です: 芝山1 成田国際空港 2017/10/26 thu:

« 定点 富山空港 2017/11/10 fri | トップページ | 芝山2 成田国際空港 2017/10/26 thu »